Time;durP1;ratioP1;P1;durP2;ratioP2;P2;SDS_P1;SDS_P2;PMS_P1;PMS_P2;Temp;Humidity;BMP_temperature;BMP_pressure;BME280_temperature;BME280_humidity;BME280_pressure;Samples;Min_cycle;Max_cycle;Signal;HPM_P1;HPM_P2
2021/09/22 00:00:21;;;;;;;7.05;1.92;;;;;;;;;;5018750;28;20293;-43
2021/09/22 00:02:46;;;;;;;3.17;1.88;;;;;;;;;;5015869;28;20499;-43
2021/09/22 00:05:12;;;;;;;6.65;1.95;;;;;;;;;;5017126;28;20580;-44
2021/09/22 00:07:37;;;;;;;6.00;2.00;;;;;;;;;;5015356;28;20646;-44
2021/09/22 00:10:04;;;;;;;5.43;1.65;;;;;;;;;;5016111;28;20144;-43
2021/09/22 00:12:29;;;;;;;2.58;1.13;;;;;;;;;;5009954;28;20052;-45
2021/09/22 00:14:54;;;;;;;1.70;0.82;;;;;;;;;;5016137;28;20073;-45
2021/09/22 00:17:20;;;;;;;6.65;1.40;;;;;;;;;;5011991;28;20078;-44
2021/09/22 00:19:45;;;;;;;4.28;1.65;;;;;;;;;;5016580;28;20033;-42
2021/09/22 00:22:10;;;;;;;4.90;1.98;;;;;;;;;;5017711;28;20083;-42
2021/09/22 00:24:36;;;;;;;2.40;1.85;;;;;;;;;;5015676;28;20485;-42
2021/09/22 00:27:01;;;;;;;1.63;1.17;;;;;;;;;;5016765;28;20052;-42
2021/09/22 00:29:26;;;;;;;4.65;1.75;;;;;;;;;;5020032;28;20018;-41
2021/09/22 00:31:52;;;;;;;1.90;1.20;;;;;;;;;;5018001;28;20038;-45
2021/09/22 00:34:17;;;;;;;2.50;1.40;;;;;;;;;;5014991;28;20041;-43
2021/09/22 00:36:43;;;;;;;1.52;1.27;;;;;;;;;;5017220;28;20025;-45
2021/09/22 00:39:08;;;;;;;4.22;0.85;;;;;;;;;;5020386;28;20500;-43
2021/09/22 00:41:34;;;;;;;5.60;2.35;;;;;;;;;;5013794;28;20256;-43
2021/09/22 00:43:59;;;;;;;4.45;1.73;;;;;;;;;;5020503;28;20721;-44
2021/09/22 00:46:24;;;;;;;3.83;1.35;;;;;;;;;;5014826;28;20017;-43
2021/09/22 00:48:50;;;;;;;3.78;0.98;;;;;;;;;;5020142;28;20508;-43
2021/09/22 00:51:15;;;;;;;4.85;1.08;;;;;;;;;;5011710;28;20057;-42
2021/09/22 00:53:40;;;;;;;4.90;1.02;;;;;;;;;;5013520;28;20491;-44
2021/09/22 00:56:07;;;;;;;10.15;1.80;;;;;;;;;;5019192;28;20056;-42
2021/09/22 00:58:33;;;;;;;3.15;1.58;;;;;;;;;;5020740;28;20064;-43
2021/09/22 01:00:58;;;;;;;5.82;1.77;;;;;;;;;;5014341;28;20097;-43
2021/09/22 01:03:24;;;;;;;3.17;1.40;;;;;;;;;;5020814;28;20464;-43
2021/09/22 01:05:50;;;;;;;5.80;1.52;;;;;;;;;;5017344;28;20042;-42
2021/09/22 01:08:16;;;;;;;3.05;1.52;;;;;;;;;;5013240;28;20108;-42
2021/09/22 01:10:41;;;;;;;3.70;1.10;;;;;;;;;;5011104;28;20120;-42
2021/09/22 01:13:07;;;;;;;4.57;1.83;;;;;;;;;;5009392;28;20021;-44
2021/09/22 01:15:33;;;;;;;5.30;2.33;;;;;;;;;;5016344;28;20538;-43
2021/09/22 01:17:59;;;;;;;2.70;0.95;;;;;;;;;;5015036;28;20099;-45
2021/09/22 01:20:29;;;;;;;1.85;0.60;;;;;;;;;;5016380;28;20037;-43
2021/09/22 01:22:55;;;;;;;2.00;1.05;;;;;;;;;;5014271;28;20029;-44
2021/09/22 01:25:21;;;;;;;3.58;1.38;;;;;;;;;;5013239;28;20017;-43
2021/09/22 01:27:47;;;;;;;1.95;1.25;;;;;;;;;;5014123;28;20899;-43
2021/09/22 01:30:13;;;;;;;3.22;1.45;;;;;;;;;;5019329;28;20032;-44
2021/09/22 01:32:46;;;;;;;4.13;1.73;;;;;;;;;;5014794;28;20026;-43
2021/09/22 01:35:11;;;;;;;5.43;2.03;;;;;;;;;;5016223;28;20032;-44
2021/09/22 01:37:37;;;;;;;8.35;1.42;;;;;;;;;;5015751;28;20101;-45
2021/09/22 01:40:02;;;;;;;1.58;1.00;;;;;;;;;;5019711;28;20021;-45
2021/09/22 01:42:27;;;;;;;4.43;1.30;;;;;;;;;;5013931;28;20360;-43
2021/09/22 01:44:53;;;;;;;1.73;1.08;;;;;;;;;;5012324;28;20768;-43
2021/09/22 01:47:18;;;;;;;6.55;2.05;;;;;;;;;;5018484;28;20037;-43
2021/09/22 01:49:43;;;;;;;4.43;1.33;;;;;;;;;;5018898;28;20032;-43
2021/09/22 01:52:09;;;;;;;7.10;1.50;;;;;;;;;;5014391;28;20198;-42
2021/09/22 01:54:34;;;;;;;3.40;1.17;;;;;;;;;;5013573;28;20040;-42
2021/09/22 01:56:59;;;;;;;3.90;1.13;;;;;;;;;;5015549;28;20026;-44
2021/09/22 01:59:24;;;;;;;2.90;1.13;;;;;;;;;;5010374;28;20048;-43
2021/09/22 02:01:50;;;;;;;2.75;1.30;;;;;;;;;;5015801;28;20037;-43
2021/09/22 02:04:15;;;;;;;8.93;1.80;;;;;;;;;;5009516;28;20053;-41
2021/09/22 02:06:40;;;;;;;8.77;1.17;;;;;;;;;;5016542;28;20746;-43
2021/09/22 02:09:06;;;;;;;2.80;1.40;;;;;;;;;;5017475;28;20033;-42
2021/09/22 02:11:31;;;;;;;3.45;1.38;;;;;;;;;;5014330;28;20021;-42
2021/09/22 02:13:56;;;;;;;1.30;1.17;;;;;;;;;;5015779;28;20060;-44
2021/09/22 02:16:22;;;;;;;3.78;2.10;;;;;;;;;;5016616;28;20033;-42
2021/09/22 02:18:47;;;;;;;6.32;1.33;;;;;;;;;;5014689;28;20030;-45
2021/09/22 02:21:12;;;;;;;2.00;0.60;;;;;;;;;;5011295;28;20737;-44
2021/09/22 02:23:38;;;;;;;4.90;2.33;;;;;;;;;;5013081;28;20048;-41
2021/09/22 02:26:04;;;;;;;1.75;1.02;;;;;;;;;;5009505;28;20036;-44
2021/09/22 02:28:29;;;;;;;3.00;1.48;;;;;;;;;;5018516;28;20026;-42
2021/09/22 02:30:54;;;;;;;2.05;1.02;;;;;;;;;;5015003;28;20037;-43
2021/09/22 02:33:20;;;;;;;8.18;1.65;;;;;;;;;;5014333;28;20013;-44
2021/09/22 02:35:45;;;;;;;2.20;0.95;;;;;;;;;;5014152;28;20033;-42
2021/09/22 02:38:10;;;;;;;1.33;1.10;;;;;;;;;;5012903;28;20025;-42
2021/09/22 02:40:36;;;;;;;7.88;2.08;;;;;;;;;;5016403;28;20026;-42
2021/09/22 02:43:01;;;;;;;2.92;1.23;;;;;;;;;;5010774;28;20480;-43
2021/09/22 02:45:34;;;;;;;5.13;2.88;;;;;;;;;;5014331;28;20045;-42
2021/09/22 02:48:02;;;;;;;2.15;1.00;;;;;;;;;;5015973;28;20030;-43
2021/09/22 02:50:30;;;;;;;4.85;1.25;;;;;;;;;;5010856;28;20018;-42
2021/09/22 02:52:55;;;;;;;3.03;1.25;;;;;;;;;;5016336;28;20037;-42
2021/09/22 02:55:21;;;;;;;5.82;1.52;;;;;;;;;;5013503;28;20030;-42
2021/09/22 02:57:46;;;;;;;2.92;1.33;;;;;;;;;;5011118;28;20523;-42
2021/09/22 03:00:12;;;;;;;3.15;1.85;;;;;;;;;;5014007;28;20084;-47
2021/09/22 03:02:37;;;;;;;1.65;1.35;;;;;;;;;;5012071;28;20457;-43
2021/09/22 03:05:04;;;;;;;2.00;1.05;;;;;;;;;;5012863;28;20033;-45
2021/09/22 03:07:29;;;;;;;3.22;1.83;;;;;;;;;;5012716;28;20088;-43
2021/09/22 03:09:54;;;;;;;3.90;1.38;;;;;;;;;;5013918;28;20041;-42
2021/09/22 03:12:19;;;;;;;9.35;1.77;;;;;;;;;;5012478;28;20600;-43
2021/09/22 03:14:45;;;;;;;5.47;1.65;;;;;;;;;;5014393;28;20456;-44
2021/09/22 03:17:10;;;;;;;2.38;1.38;;;;;;;;;;5008719;28;20026;-42
2021/09/22 03:19:35;;;;;;;6.70;2.15;;;;;;;;;;5016259;28;20018;-44
2021/09/22 03:22:01;;;;;;;4.93;1.63;;;;;;;;;;5014166;28;20045;-42
2021/09/22 03:24:26;;;;;;;3.60;2.22;;;;;;;;;;5012463;28;20021;-45
2021/09/22 03:26:51;;;;;;;4.60;1.30;;;;;;;;;;5017567;28;20732;-42
2021/09/22 03:29:16;;;;;;;2.47;1.33;;;;;;;;;;5009913;28;20071;-42
2021/09/22 03:31:43;;;;;;;3.25;1.65;;;;;;;;;;5013126;28;20020;-42
2021/09/22 03:34:12;;;;;;;1.45;0.70;;;;;;;;;;5012786;28;20091;-41
2021/09/22 03:36:37;;;;;;;4.15;1.83;;;;;;;;;;5009682;28;20799;-43
2021/09/22 03:39:02;;;;;;;6.05;1.55;;;;;;;;;;5018114;28;20138;-43
2021/09/22 03:41:28;;;;;;;3.35;1.70;;;;;;;;;;5015981;28;20033;-45
2021/09/22 03:43:53;;;;;;;2.92;0.85;;;;;;;;;;5014934;28;20069;-42
2021/09/22 03:46:18;;;;;;;15.43;2.25;;;;;;;;;;5021074;28;20025;-43
2021/09/22 03:48:44;;;;;;;3.95;1.90;;;;;;;;;;5010321;28;20025;-44
2021/09/22 03:51:09;;;;;;;1.20;0.85;;;;;;;;;;5018563;28;20030;-42
2021/09/22 03:53:34;;;;;;;1.73;1.08;;;;;;;;;;5015186;28;20050;-42
2021/09/22 03:56:00;;;;;;;1.45;0.90;;;;;;;;;;5015974;28;20485;-43
2021/09/22 03:58:26;;;;;;;2.55;1.13;;;;;;;;;;5017679;28;20025;-42
2021/09/22 04:00:51;;;;;;;5.53;1.40;;;;;;;;;;5016494;28;20025;-43
2021/09/22 04:03:17;;;;;;;2.00;0.75;;;;;;;;;;5016877;28;20547;-44
2021/09/22 04:05:42;;;;;;;4.45;1.63;;;;;;;;;;5017979;28;20057;-43
2021/09/22 04:08:07;;;;;;;5.00;1.25;;;;;;;;;;5017513;28;20026;-43
2021/09/22 04:10:33;;;;;;;1.35;1.05;;;;;;;;;;5019876;28;20061;-42
2021/09/22 04:12:58;;;;;;;2.72;1.20;;;;;;;;;;5016115;28;20025;-44
2021/09/22 04:15:24;;;;;;;0.93;0.82;;;;;;;;;;5020305;28;20042;-42
2021/09/22 04:17:49;;;;;;;0.73;0.63;;;;;;;;;;5014369;28;20026;-43
2021/09/22 04:20:14;;;;;;;2.92;1.33;;;;;;;;;;5015041;28;20502;-43
2021/09/22 04:22:39;;;;;;;1.55;0.98;;;;;;;;;;5019295;28;20021;-42
2021/09/22 04:25:06;;;;;;;1.63;1.15;;;;;;;;;;5015132;28;20026;-42
2021/09/22 04:27:31;;;;;;;2.70;0.57;;;;;;;;;;5017218;28;20038;-42
2021/09/22 04:29:56;;;;;;;2.78;0.82;;;;;;;;;;5016309;28;20379;-42
2021/09/22 04:32:22;;;;;;;3.13;0.90;;;;;;;;;;5019164;28;20542;-42
2021/09/22 04:34:47;;;;;;;3.20;1.02;;;;;;;;;;5019803;28;20025;-42
2021/09/22 04:37:13;;;;;;;1.52;0.50;;;;;;;;;;5016519;28;20699;-43
2021/09/22 04:39:38;;;;;;;2.28;0.73;;;;;;;;;;5014750;28;20119;-42
2021/09/22 04:42:03;;;;;;;2.20;0.93;;;;;;;;;;5013220;28;20028;-41
2021/09/22 04:44:29;;;;;;;2.80;0.98;;;;;;;;;;5017499;28;20033;-42
2021/09/22 04:46:54;;;;;;;2.33;1.00;;;;;;;;;;5016879;28;20390;-47
2021/09/22 04:49:20;;;;;;;2.78;1.00;;;;;;;;;;5013728;28;20116;-42
2021/09/22 04:51:45;;;;;;;6.28;1.38;;;;;;;;;;5019209;28;20453;-46
2021/09/22 04:54:10;;;;;;;1.45;0.85;;;;;;;;;;5019174;28;20032;-42
2021/09/22 04:56:36;;;;;;;3.50;1.67;;;;;;;;;;5018646;28;20038;-42
2021/09/22 04:59:01;;;;;;;5.22;1.27;;;;;;;;;;5012258;28;20617;-43
2021/09/22 05:01:27;;;;;;;11.20;2.10;;;;;;;;;;5014105;28;20024;-41
2021/09/22 05:03:52;;;;;;;3.58;1.55;;;;;;;;;;5009864;28;20030;-42
2021/09/22 05:06:17;;;;;;;1.77;1.13;;;;;;;;;;5020849;28;20160;-44
2021/09/22 05:08:43;;;;;;;4.38;1.70;;;;;;;;;;5013189;28;20032;-44
2021/09/22 05:11:08;;;;;;;2.53;2.17;;;;;;;;;;5017832;28;20048;-43
2021/09/22 05:13:33;;;;;;;6.75;3.20;;;;;;;;;;5018678;28;20022;-43
2021/09/22 05:15:58;;;;;;;2.65;1.65;;;;;;;;;;5017733;28;20489;-44
2021/09/22 05:18:24;;;;;;;3.50;1.73;;;;;;;;;;5017441;28;20116;-43
2021/09/22 05:20:49;;;;;;;1.33;0.90;;;;;;;;;;5016815;28;20025;-43
2021/09/22 05:23:15;;;;;;;2.47;1.23;;;;;;;;;;5016472;28;20345;-44
2021/09/22 05:25:41;;;;;;;3.75;2.10;;;;;;;;;;5012445;28;20025;-45
2021/09/22 05:28:06;;;;;;;5.03;2.05;;;;;;;;;;5012685;28;20044;-41
2021/09/22 05:30:31;;;;;;;2.80;1.60;;;;;;;;;;5015540;28;20030;-42
2021/09/22 05:32:57;;;;;;;5.85;1.75;;;;;;;;;;5012352;28;20036;-48
2021/09/22 05:35:22;;;;;;;1.88;1.13;;;;;;;;;;5016043;28;20614;-45
2021/09/22 05:37:48;;;;;;;6.32;1.90;;;;;;;;;;5014065;28;20039;-46
2021/09/22 05:40:13;;;;;;;4.68;2.47;;;;;;;;;;5014301;28;20021;-47
2021/09/22 05:42:41;;;;;;;3.67;1.67;;;;;;;;;;5016315;28;20018;-41
2021/09/22 05:45:07;;;;;;;1.80;0.90;;;;;;;;;;5016232;28;20030;-43
2021/09/22 05:47:32;;;;;;;2.67;1.70;;;;;;;;;;5010478;28;20507;-45
2021/09/22 05:49:57;;;;;;;8.55;1.77;;;;;;;;;;5015995;28;20095;-46
2021/09/22 05:52:23;;;;;;;2.92;1.67;;;;;;;;;;5012976;28;20023;-45
2021/09/22 05:54:49;;;;;;;8.55;3.78;;;;;;;;;;5015241;28;20024;-46
2021/09/22 05:57:14;;;;;;;11.27;2.60;;;;;;;;;;5015440;28;20477;-45
2021/09/22 05:59:40;;;;;;;6.93;2.15;;;;;;;;;;5014157;28;20091;-45
2021/09/22 06:02:06;;;;;;;3.95;3.17;;;;;;;;;;5013726;28;20041;-43
2021/09/22 06:04:32;;;;;;;4.97;2.70;;;;;;;;;;5016911;28;20038;-42
2021/09/22 06:06:57;;;;;;;4.47;2.65;;;;;;;;;;5013270;28;20175;-46
2021/09/22 06:09:22;;;;;;;5.35;2.15;;;;;;;;;;5013476;28;20370;-44
2021/09/22 06:11:47;;;;;;;5.78;2.83;;;;;;;;;;5013570;28;20040;-43
2021/09/22 06:14:13;;;;;;;3.45;2.40;;;;;;;;;;5013509;28;20029;-44
2021/09/22 06:16:38;;;;;;;5.00;1.88;;;;;;;;;;5015514;28;20035;-46
2021/09/22 06:19:06;;;;;;;9.05;3.40;;;;;;;;;;5008755;28;20030;-45
2021/09/22 06:21:31;;;;;;;7.72;4.10;;;;;;;;;;5008137;28;20697;-42
2021/09/22 06:23:56;;;;;;;9.00;6.18;;;;;;;;;;5015406;28;20060;-41
2021/09/22 06:26:23;;;;;;;2.95;2.20;;;;;;;;;;5015376;28;20018;-44
2021/09/22 06:28:48;;;;;;;3.47;2.25;;;;;;;;;;5008450;28;20115;-41
2021/09/22 06:31:14;;;;;;;8.82;3.15;;;;;;;;;;5011972;28;20698;-41
2021/09/22 06:33:39;;;;;;;18.20;11.13;;;;;;;;;;5010875;28;20030;-41
2021/09/22 06:36:05;;;;;;;12.93;7.78;;;;;;;;;;5016109;28;20029;-42
2021/09/22 06:38:30;;;;;;;16.75;4.25;;;;;;;;;;5007011;28;20099;-41
2021/09/22 06:40:56;;;;;;;7.22;4.38;;;;;;;;;;5010628;28;20022;-41
2021/09/22 06:43:21;;;;;;;13.07;5.47;;;;;;;;;;5006892;28;20025;-42
2021/09/22 06:45:46;;;;;;;15.63;6.13;;;;;;;;;;5014941;28;20028;-41
2021/09/22 06:48:12;;;;;;;7.07;3.47;;;;;;;;;;5014805;28;20036;-42
2021/09/22 06:50:37;;;;;;;69.15;24.35;;;;;;;;;;5019082;28;20116;-43
2021/09/22 06:53:03;;;;;;;5.63;2.42;;;;;;;;;;5011822;28;20117;-43
2021/09/22 06:55:28;;;;;;;2.97;1.77;;;;;;;;;;5011707;28;20722;-41
2021/09/22 06:57:53;;;;;;;15.38;1.88;;;;;;;;;;5016354;28;20025;-42
2021/09/22 07:00:19;;;;;;;32.88;12.45;;;;;;;;;;5018771;28;20025;-43
2021/09/22 07:02:44;;;;;;;14.30;5.90;;;;;;;;;;5012475;28;20513;-43
2021/09/22 07:05:10;;;;;;;15.88;7.47;;;;;;;;;;5014264;28;20025;-41
2021/09/22 07:07:36;;;;;;;28.63;12.90;;;;;;;;;;5017490;28;20054;-41
2021/09/22 07:10:02;;;;;;;24.73;11.13;;;;;;;;;;5019833;28;20022;-43
2021/09/22 07:12:27;;;;;;;16.40;8.77;;;;;;;;;;5015916;28;20130;-42
2021/09/22 07:14:52;;;;;;;6.38;4.38;;;;;;;;;;5016561;28;20988;-43
2021/09/22 07:17:18;;;;;;;11.15;6.38;;;;;;;;;;5015697;28;20139;-42
2021/09/22 07:19:44;;;;;;;13.88;8.98;;;;;;;;;;5021369;28;20037;-42
2021/09/22 07:22:09;;;;;;;5.45;4.75;;;;;;;;;;5019252;28;20472;-41
2021/09/22 07:24:34;;;;;;;21.33;7.50;;;;;;;;;;5020195;28;20025;-41
2021/09/22 07:27:00;;;;;;;3.17;2.13;;;;;;;;;;5016556;28;20362;-42
2021/09/22 07:29:27;;;;;;;4.07;2.47;;;;;;;;;;5015043;28;20152;-41
2021/09/22 07:31:52;;;;;;;15.90;4.07;;;;;;;;;;5016029;28;20029;-41
2021/09/22 07:34:18;;;;;;;7.25;4.63;;;;;;;;;;5018812;28;20475;-40
2021/09/22 07:36:43;;;;;;;11.07;6.50;;;;;;;;;;5013010;28;20033;-41
2021/09/22 07:39:08;;;;;;;10.32;7.10;;;;;;;;;;5020118;28;20033;-46
2021/09/22 07:41:33;;;;;;;8.25;5.28;;;;;;;;;;5017364;28;20028;-41
2021/09/22 07:43:59;;;;;;;12.07;7.82;;;;;;;;;;5009759;28;20073;-42
2021/09/22 07:46:24;;;;;;;20.15;10.48;;;;;;;;;;5013775;28;20018;-43
2021/09/22 07:48:49;;;;;;;24.35;12.07;;;;;;;;;;5016856;28;20033;-42
2021/09/22 07:51:15;;;;;;;8.60;4.80;;;;;;;;;;5013479;28;20451;-42
2021/09/22 07:53:40;;;;;;;18.58;7.85;;;;;;;;;;5017769;28;20029;-42
2021/09/22 07:56:05;;;;;;;82.68;49.38;;;;;;;;;;5019345;28;20079;-41
2021/09/22 07:58:31;;;;;;;27.33;16.65;;;;;;;;;;5015676;28;20472;-38
2021/09/22 08:00:56;;;;;;;29.83;13.40;;;;;;;;;;5014546;28;20360;-40
2021/09/22 08:03:21;;;;;;;40.70;26.50;;;;;;;;;;5020081;28;20072;-42
2021/09/22 08:05:47;;;;;;;17.17;10.57;;;;;;;;;;5016777;28;20082;-42
2021/09/22 08:08:12;;;;;;;38.50;16.90;;;;;;;;;;5020127;28;20504;-46
2021/09/22 08:10:38;;;;;;;13.32;4.63;;;;;;;;;;5017029;28;20465;-48
2021/09/22 08:13:03;;;;;;;10.60;8.63;;;;;;;;;;5015005;28;20026;-49
2021/09/22 08:15:29;;;;;;;21.10;15.15;;;;;;;;;;5018236;28;20050;-46
2021/09/22 08:17:54;;;;;;;25.55;12.48;;;;;;;;;;5014803;28;20124;-48
2021/09/22 08:20:20;;;;;;;28.15;16.45;;;;;;;;;;5014770;28;20049;-45
2021/09/22 08:22:45;;;;;;;20.08;11.02;;;;;;;;;;5013941;28;20106;-43
2021/09/22 08:25:11;;;;;;;9.68;7.15;;;;;;;;;;5015714;28;20029;-44
2021/09/22 08:27:36;;;;;;;42.58;20.83;;;;;;;;;;5018733;28;20477;-44
2021/09/22 08:30:03;;;;;;;10.70;5.07;;;;;;;;;;5015880;28;20125;-47
2021/09/22 08:32:28;;;;;;;12.48;7.85;;;;;;;;;;5018257;28;20556;-45
2021/09/22 08:34:53;;;;;;;14.50;6.88;;;;;;;;;;5017480;28;20120;-42
2021/09/22 08:37:19;;;;;;;16.55;6.07;;;;;;;;;;5014871;28;20572;-44
2021/09/22 08:39:44;;;;;;;16.70;8.20;;;;;;;;;;5010603;28;20151;-44
2021/09/22 08:42:09;;;;;;;19.40;9.48;;;;;;;;;;5010328;28;20065;-45
2021/09/22 08:44:35;;;;;;;10.68;5.35;;;;;;;;;;5013758;28;20045;-45
2021/09/22 08:47:00;;;;;;;12.30;6.55;;;;;;;;;;5014908;28;20016;-47
2021/09/22 08:49:25;;;;;;;10.15;7.47;;;;;;;;;;5017406;28;20034;-44
2021/09/22 08:51:51;;;;;;;6.40;3.97;;;;;;;;;;5019001;28;20132;-48
2021/09/22 08:54:16;;;;;;;13.60;3.05;;;;;;;;;;5018365;28;20064;-44
2021/09/22 08:56:42;;;;;;;13.40;2.90;;;;;;;;;;5017867;28;20052;-43
2021/09/22 08:59:09;;;;;;;13.38;5.35;;;;;;;;;;5013702;28;20029;-44
2021/09/22 09:01:34;;;;;;;8.77;5.15;;;;;;;;;;5011501;28;20314;-46
2021/09/22 09:04:12;;;;;;;5.10;4.38;;;;;;;;;;5017990;28;20482;-47
2021/09/22 09:06:39;;;;;;;6.45;3.45;;;;;;;;;;5015631;28;20053;-46
2021/09/22 09:09:05;;;;;;;7.82;2.58;;;;;;;;;;5018736;28;20036;-44
2021/09/22 09:11:32;;;;;;;6.63;1.92;;;;;;;;;;5013475;28;20032;-46
2021/09/22 09:13:58;;;;;;;7.05;3.35;;;;;;;;;;5012806;28;20022;-45
2021/09/22 09:16:30;;;;;;;6.60;2.78;;;;;;;;;;5010022;28;20026;-48
2021/09/22 09:18:55;;;;;;;6.93;3.30;;;;;;;;;;5014934;28;20029;-50
2021/09/22 09:21:23;;;;;;;8.23;5.57;;;;;;;;;;5009621;28;20014;-47
2021/09/22 09:23:50;;;;;;;5.78;3.10;;;;;;;;;;5015523;28;20171;-44
2021/09/22 09:26:18;;;;;;;13.13;2.55;;;;;;;;;;5014251;28;20438;-49
2021/09/22 09:28:47;;;;;;;16.17;4.63;;;;;;;;;;5016009;28;20388;-48
2021/09/22 09:31:12;;;;;;;4.38;3.42;;;;;;;;;;5016945;28;20029;-47
2021/09/22 09:33:53;;;;;;;5.93;2.88;;;;;;;;;;5017792;28;20038;-45
2021/09/22 09:36:22;;;;;;;7.85;3.15;;;;;;;;;;5017406;28;20029;-47
2021/09/22 09:38:52;;;;;;;17.80;13.70;;;;;;;;;;5012136;28;20037;-49
2021/09/22 09:41:21;;;;;;;35.70;21.10;;;;;;;;;;5015205;28;20022;-47
2021/09/22 09:43:47;;;;;;;5.10;3.35;;;;;;;;;;5018475;28;20049;-47
2021/09/22 09:46:18;;;;;;;9.75;3.95;;;;;;;;;;5014949;28;20045;-48
2021/09/22 09:48:43;;;;;;;6.00;2.83;;;;;;;;;;5013219;28;20083;-46
2021/09/22 09:51:11;;;;;;;6.88;3.20;;;;;;;;;;5011845;28;20029;-45
2021/09/22 09:53:36;;;;;;;4.40;3.00;;;;;;;;;;5014238;28;20029;-50
2021/09/22 09:56:04;;;;;;;4.47;2.67;;;;;;;;;;5012830;28;20025;-45
2021/09/22 09:58:39;;;;;;;7.20;3.83;;;;;;;;;;5014500;28;20072;-44
2021/09/22 10:01:04;;;;;;;7.72;2.47;;;;;;;;;;5007865;28;20037;-46
2021/09/22 10:03:30;;;;;;;7.93;2.42;;;;;;;;;;5018699;28;20021;-45
2021/09/22 10:05:57;;;;;;;16.77;3.55;;;;;;;;;;5015037;28;20413;-43
2021/09/22 10:08:23;;;;;;;5.82;3.25;;;;;;;;;;5014317;28;20105;-44
2021/09/22 10:10:51;;;;;;;4.88;2.67;;;;;;;;;;5016013;28;20105;-45
2021/09/22 10:13:18;;;;;;;3.63;2.30;;;;;;;;;;5015001;28;20173;-48
2021/09/22 10:15:44;;;;;;;9.98;2.38;;;;;;;;;;5016402;28;20140;-46
2021/09/22 10:18:10;;;;;;;4.68;2.35;;;;;;;;;;5013538;28;20537;-45
2021/09/22 10:20:42;;;;;;;10.65;4.10;;;;;;;;;;5014434;28;20029;-48
2021/09/22 10:23:09;;;;;;;9.45;4.60;;;;;;;;;;5015395;28;20056;-47
2021/09/22 10:25:35;;;;;;;10.70;4.18;;;;;;;;;;5013228;28;20096;-46
2021/09/22 10:28:00;;;;;;;15.00;2.08;;;;;;;;;;5012428;28;20565;-47
2021/09/22 10:30:31;;;;;;;3.53;1.23;;;;;;;;;;5013380;28;20021;-48
2021/09/22 10:32:57;;;;;;;2.67;2.17;;;;;;;;;;5015284;28;20059;-45
2021/09/22 10:35:25;;;;;;;7.43;3.63;;;;;;;;;;5019659;28;20050;-47
2021/09/22 10:37:51;;;;;;;9.68;5.22;;;;;;;;;;5006450;28;20028;-45
2021/09/22 10:40:17;;;;;;;13.30;6.13;;;;;;;;;;5013957;28;20025;-45
2021/09/22 10:42:44;;;;;;;16.42;6.32;;;;;;;;;;5015403;28;20021;-45
2021/09/22 10:45:12;;;;;;;10.02;4.80;;;;;;;;;;5018441;28;20197;-48
2021/09/22 10:47:37;;;;;;;6.38;3.72;;;;;;;;;;5014470;28;20024;-46
2021/09/22 10:50:03;;;;;;;9.40;4.88;;;;;;;;;;5010705;28;20029;-50
2021/09/22 10:52:39;;;;;;;8.95;3.67;;;;;;;;;;5016838;28;20772;-46
2021/09/22 10:55:07;;;;;;;9.63;4.43;;;;;;;;;;5014679;28;20033;-47
2021/09/22 10:57:32;;;;;;;6.82;4.38;;;;;;;;;;5014837;28;20030;-48
2021/09/22 11:00:11;;;;;;;6.75;4.63;;;;;;;;;;5015441;28;20544;-44
2021/09/22 11:02:44;;;;;;;1.63;1.30;;;;;;;;;;5016120;28;20017;-45
2021/09/22 11:05:10;;;;;;;4.03;1.77;;;;;;;;;;5009704;28;20014;-46
2021/09/22 11:07:59;;;;;;;6.78;1.10;;;;;;;;;;5011444;28;20056;-46
2021/09/22 11:10:31;;;;;;;3.85;1.40;;;;;;;;;;5011443;28;20036;-49
2021/09/22 11:13:17;;;;;;;8.63;2.30;;;;;;;;;;5011576;28;20053;-46
2021/09/22 11:15:42;;;;;;;5.82;2.42;;;;;;;;;;5011526;28;20029;-45
2021/09/22 11:18:08;;;;;;;10.43;1.63;;;;;;;;;;5012565;28;20177;-45
2021/09/22 11:20:33;;;;;;;3.65;1.40;;;;;;;;;;5010614;28;20472;-44
2021/09/22 11:23:05;;;;;;;3.33;2.17;;;;;;;;;;5015197;28;20013;-45
2021/09/22 11:25:31;;;;;;;7.78;3.17;;;;;;;;;;5016252;28;20429;-45
2021/09/22 11:28:06;;;;;;;9.90;6.07;;;;;;;;;;5016343;28;20025;-46
2021/09/22 11:30:32;;;;;;;9.18;4.65;;;;;;;;;;5006882;28;20030;-48
2021/09/22 11:32:57;;;;;;;5.95;3.95;;;;;;;;;;5008480;28;20025;-45
2021/09/22 11:35:23;;;;;;;5.82;4.10;;;;;;;;;;5015500;28;20123;-46
2021/09/22 11:37:53;;;;;;;2.50;1.40;;;;;;;;;;5015213;28;20026;-46
2021/09/22 11:40:20;;;;;;;9.63;2.25;;;;;;;;;;5012897;28;20045;-49
2021/09/22 11:42:54;;;;;;;4.53;1.55;;;;;;;;;;5019575;28;20074;-60
2021/09/22 11:45:23;;;;;;;3.00;1.42;;;;;;;;;;5012690;28;20590;-61
2021/09/22 11:47:49;;;;;;;7.07;1.83;;;;;;;;;;5015196;28;20018;-64
2021/09/22 11:50:28;;;;;;;17.10;3.85;;;;;;;;;;5014023;28;20021;-60
2021/09/22 11:52:53;;;;;;;2.40;1.52;;;;;;;;;;5019359;28;20397;-60
2021/09/22 11:55:22;;;;;;;8.90;2.50;;;;;;;;;;5012684;28;20542;-60
2021/09/22 11:57:47;;;;;;;4.07;1.33;;;;;;;;;;5021043;28;20033;-60
2021/09/22 12:00:16;;;;;;;16.52;14.82;;;;;;;;;;5018789;28;20018;-60
2021/09/22 12:02:42;;;;;;;15.13;3.67;;;;;;;;;;5020511;28;20009;-61
2021/09/22 12:05:12;;;;;;;15.45;2.35;;;;;;;;;;5021130;28;20037;-61
2021/09/22 12:07:38;;;;;;;4.40;1.73;;;;;;;;;;5017030;28;20049;-60
2021/09/22 12:10:03;;;;;;;4.72;1.60;;;;;;;;;;5020011;28;20375;-61
2021/09/22 12:12:32;;;;;;;3.72;1.08;;;;;;;;;;5020119;28;20057;-63
2021/09/22 12:14:57;;;;;;;3.35;1.60;;;;;;;;;;5019136;28;20501;-61
2021/09/22 12:17:27;;;;;;;4.00;1.35;;;;;;;;;;5017151;28;20060;-60
2021/09/22 12:19:53;;;;;;;2.63;1.35;;;;;;;;;;5017984;28;20058;-62
2021/09/22 12:22:22;;;;;;;7.90;3.30;;;;;;;;;;5017275;28;20056;-63
2021/09/22 12:24:48;;;;;;;4.68;2.38;;;;;;;;;;5015755;28;20017;-60
2021/09/22 12:27:14;;;;;;;4.00;1.25;;;;;;;;;;5013614;28;20017;-59
2021/09/22 12:29:58;;;;;;;3.83;0.95;;;;;;;;;;5018108;28;20018;-60
2021/09/22 12:32:25;;;;;;;5.38;1.50;;;;;;;;;;5010235;28;20680;-55
2021/09/22 12:34:51;;;;;;;2.53;0.98;;;;;;;;;;5011371;28;20108;-56
2021/09/22 12:37:18;;;;;;;4.93;3.40;;;;;;;;;;5012085;28;20057;-60
2021/09/22 12:39:51;;;;;;;3.95;1.15;;;;;;;;;;5014486;28;20024;-53
2021/09/22 12:42:17;;;;;;;9.02;2.80;;;;;;;;;;5017854;28;20030;-54
2021/09/22 12:44:52;;;;;;;3.42;2.53;;;;;;;;;;5019187;28;20021;-60
2021/09/22 12:47:18;;;;;;;6.88;1.77;;;;;;;;;;5017532;28;20112;-63
2021/09/22 12:50:01;;;;;;;4.80;2.13;;;;;;;;;;5017288;28;20105;-61
2021/09/22 12:52:27;;;;;;;3.50;1.00;;;;;;;;;;5014126;28;20049;-60
2021/09/22 12:54:52;;;;;;;11.63;1.67;;;;;;;;;;5015458;28;20044;-61
2021/09/22 12:57:17;;;;;;;5.68;2.78;;;;;;;;;;5015523;28;20060;-61
2021/09/22 12:59:43;;;;;;;6.47;1.45;;;;;;;;;;5016418;28;20766;-61
2021/09/22 13:02:18;;;;;;;2.30;1.33;;;;;;;;;;5018833;28;20071;-61
2021/09/22 13:04:46;;;;;;;2.35;1.58;;;;;;;;;;5018075;28;20026;-60
2021/09/22 13:07:20;;;;;;;2.33;1.20;;;;;;;;;;5021111;28;20203;-60
2021/09/22 13:09:45;;;;;;;1.95;0.90;;;;;;;;;;5018659;28;20026;-61
2021/09/22 13:12:25;;;;;;;6.05;1.25;;;;;;;;;;5017478;28;20124;-61
2021/09/22 13:14:51;;;;;;;4.72;1.52;;;;;;;;;;5014918;28;20029;-61
2021/09/22 13:17:16;;;;;;;8.75;1.45;;;;;;;;;;5013485;28;20022;-61
2021/09/22 13:19:41;;;;;;;2.60;1.42;;;;;;;;;;5015022;28;20038;-61
2021/09/22 13:22:08;;;;;;;8.15;3.97;;;;;;;;;;5013042;28;20018;-61
2021/09/22 13:24:34;;;;;;;6.95;4.45;;;;;;;;;;5013747;28;20028;-60
2021/09/22 13:27:00;;;;;;;5.20;2.97;;;;;;;;;;5014887;28;20214;-60
2021/09/22 13:29:27;;;;;;;4.70;1.70;;;;;;;;;;5013575;28;20050;-60
2021/09/22 13:31:56;;;;;;;2.20;1.35;;;;;;;;;;5016928;28;20485;-60
2021/09/22 13:34:27;;;;;;;15.73;1.75;;;;;;;;;;5016764;28;20044;-60
2021/09/22 13:36:52;;;;;;;5.38;1.55;;;;;;;;;;5016023;28;20025;-60
2021/09/22 13:39:17;;;;;;;8.75;2.33;;;;;;;;;;5015168;28;20021;-60
2021/09/22 13:41:42;;;;;;;7.82;2.10;;;;;;;;;;5017715;28;20025;-60
2021/09/22 13:44:08;;;;;;;4.15;1.50;;;;;;;;;;5013528;28;20401;-60
2021/09/22 13:46:34;;;;;;;3.22;1.58;;;;;;;;;;5016767;28;20327;-60
2021/09/22 13:49:00;;;;;;;6.25;1.85;;;;;;;;;;5021012;28;20028;-60
2021/09/22 13:51:26;;;;;;;7.43;1.60;;;;;;;;;;5018280;28;20029;-61
2021/09/22 13:53:52;;;;;;;6.07;1.15;;;;;;;;;;5014515;28;20022;-61
2021/09/22 13:56:17;;;;;;;8.48;2.28;;;;;;;;;;5014588;28;20497;-60
2021/09/22 13:58:43;;;;;;;7.85;2.83;;;;;;;;;;5015827;28;20068;-60
2021/09/22 14:01:09;;;;;;;3.55;2.60;;;;;;;;;;5015506;28;20026;-61
2021/09/22 14:03:35;;;;;;;5.50;1.80;;;;;;;;;;5015608;28;20026;-61
2021/09/22 14:06:01;;;;;;;10.15;2.05;;;;;;;;;;5009867;28;20081;-61
2021/09/22 14:08:27;;;;;;;7.93;3.08;;;;;;;;;;5015231;28;20032;-60
2021/09/22 14:10:52;;;;;;;8.35;3.35;;;;;;;;;;5015221;28;20025;-61
2021/09/22 14:13:18;;;;;;;7.38;1.98;;;;;;;;;;5011063;28;20167;-61
2021/09/22 14:15:45;;;;;;;10.27;1.75;;;;;;;;;;5018341;28;20068;-61
2021/09/22 14:18:11;;;;;;;6.57;3.72;;;;;;;;;;5017237;28;20508;-60
2021/09/22 14:20:39;;;;;;;12.68;5.07;;;;;;;;;;5009247;28;20156;-61
2021/09/22 14:23:05;;;;;;;5.57;2.78;;;;;;;;;;5011555;28;20022;-61
2021/09/22 14:25:31;;;;;;;15.55;3.55;;;;;;;;;;5011862;28;20071;-61
2021/09/22 14:27:57;;;;;;;4.13;1.92;;;;;;;;;;5014207;28;20022;-60
2021/09/22 14:30:22;;;;;;;2.88;2.05;;;;;;;;;;5014662;28;20470;-60
2021/09/22 14:32:48;;;;;;;8.02;2.55;;;;;;;;;;5017631;28;20048;-60
2021/09/22 14:35:14;;;;;;;8.18;3.33;;;;;;;;;;5014179;28;20482;-60